sensor_id;sensor_type;location;lat;lon;timestamp;P1;durP1;ratioP1;P2;durP2;ratioP2
68315;SDS011;55508;54.368;18.406;2022-08-19T00:01:43;30.98;;;25.23;;
68315;SDS011;55508;54.368;18.406;2022-08-19T00:04:23;30.23;;;24.58;;
68315;SDS011;55508;54.368;18.406;2022-08-19T00:06:53;24.15;;;21.75;;
68315;SDS011;55508;54.368;18.406;2022-08-19T00:09:20;26.00;;;23.27;;
68315;SDS011;55508;54.368;18.406;2022-08-19T00:11:49;28.92;;;24.15;;
68315;SDS011;55508;54.368;18.406;2022-08-19T00:14:16;30.33;;;27.02;;
68315;SDS011;55508;54.368;18.406;2022-08-19T00:16:45;29.08;;;24.75;;
68315;SDS011;55508;54.368;18.406;2022-08-19T00:19:13;25.35;;;22.70;;
68315;SDS011;55508;54.368;18.406;2022-08-19T00:21:41;27.83;;;24.80;;
68315;SDS011;55508;54.368;18.406;2022-08-19T00:24:10;29.15;;;24.52;;
68315;SDS011;55508;54.368;18.406;2022-08-19T00:26:39;24.25;;;21.80;;
68315;SDS011;55508;54.368;18.406;2022-08-19T00:29:07;24.58;;;21.33;;
68315;SDS011;55508;54.368;18.406;2022-08-19T00:31:35;28.40;;;21.90;;
68315;SDS011;55508;54.368;18.406;2022-08-19T00:34:03;26.77;;;21.95;;
68315;SDS011;55508;54.368;18.406;2022-08-19T00:36:30;25.85;;;22.73;;
68315;SDS011;55508;54.368;18.406;2022-08-19T00:38:59;24.80;;;22.15;;
68315;SDS011;55508;54.368;18.406;2022-08-19T00:41:26;26.20;;;21.75;;
68315;SDS011;55508;54.368;18.406;2022-08-19T00:46:27;24.60;;;20.30;;
68315;SDS011;55508;54.368;18.406;2022-08-19T00:48:55;22.30;;;19.95;;
68315;SDS011;55508;54.368;18.406;2022-08-19T00:51:25;27.17;;;24.00;;
68315;SDS011;55508;54.368;18.406;2022-08-19T00:53:54;28.70;;;25.88;;
68315;SDS011;55508;54.368;18.406;2022-08-19T00:56:22;34.83;;;28.55;;
68315;SDS011;55508;54.368;18.406;2022-08-19T00:58:49;37.65;;;28.25;;
68315;SDS011;55508;54.368;18.406;2022-08-19T01:01:16;32.80;;;29.38;;
68315;SDS011;55508;54.368;18.406;2022-08-19T01:03:43;35.22;;;31.15;;
68315;SDS011;55508;54.368;18.406;2022-08-19T01:06:25;31.80;;;28.05;;
68315;SDS011;55508;54.368;18.406;2022-08-19T01:08:53;27.83;;;25.02;;
68315;SDS011;55508;54.368;18.406;2022-08-19T01:11:21;24.63;;;22.25;;
68315;SDS011;55508;54.368;18.406;2022-08-19T01:13:48;25.13;;;21.52;;
68315;SDS011;55508;54.368;18.406;2022-08-19T01:16:18;25.05;;;21.35;;
68315;SDS011;55508;54.368;18.406;2022-08-19T01:18:46;30.05;;;23.35;;
68315;SDS011;55508;54.368;18.406;2022-08-19T01:24:14;26.05;;;23.20;;
68315;SDS011;55508;54.368;18.406;2022-08-19T01:26:42;25.50;;;22.67;;
68315;SDS011;55508;54.368;18.406;2022-08-19T01:29:12;26.42;;;23.65;;
68315;SDS011;55508;54.368;18.406;2022-08-19T01:31:40;28.80;;;22.45;;
68315;SDS011;55508;54.368;18.406;2022-08-19T01:34:07;25.10;;;21.90;;
68315;SDS011;55508;54.368;18.406;2022-08-19T01:36:36;29.40;;;24.00;;
68315;SDS011;55508;54.368;18.406;2022-08-19T01:39:06;27.70;;;24.02;;
68315;SDS011;55508;54.368;18.406;2022-08-19T01:41:35;37.15;;;26.02;;
68315;SDS011;55508;54.368;18.406;2022-08-19T01:44:03;32.05;;;28.63;;
68315;SDS011;55508;54.368;18.406;2022-08-19T01:46:44;37.92;;;30.02;;
68315;SDS011;55508;54.368;18.406;2022-08-19T01:49:13;33.60;;;28.70;;
68315;SDS011;55508;54.368;18.406;2022-08-19T01:51:41;35.40;;;28.50;;
68315;SDS011;55508;54.368;18.406;2022-08-19T01:54:09;32.85;;;28.60;;
68315;SDS011;55508;54.368;18.406;2022-08-19T01:56:36;31.98;;;26.27;;
68315;SDS011;55508;54.368;18.406;2022-08-19T01:59:05;26.15;;;23.52;;
68315;SDS011;55508;54.368;18.406;2022-08-19T02:01:38;26.38;;;23.80;;
68315;SDS011;55508;54.368;18.406;2022-08-19T02:04:05;28.58;;;24.63;;
68315;SDS011;55508;54.368;18.406;2022-08-19T02:06:32;28.20;;;24.85;;
68315;SDS011;55508;54.368;18.406;2022-08-19T02:08:59;25.13;;;22.63;;
68315;SDS011;55508;54.368;18.406;2022-08-19T02:11:28;25.40;;;22.88;;
68315;SDS011;55508;54.368;18.406;2022-08-19T02:14:00;28.50;;;25.55;;
68315;SDS011;55508;54.368;18.406;2022-08-19T02:16:29;28.38;;;24.55;;
68315;SDS011;55508;54.368;18.406;2022-08-19T02:18:57;31.40;;;25.85;;
68315;SDS011;55508;54.368;18.406;2022-08-19T02:21:27;35.78;;;26.73;;
68315;SDS011;55508;54.368;18.406;2022-08-19T02:23:55;33.70;;;27.25;;
68315;SDS011;55508;54.368;18.406;2022-08-19T02:26:22;29.10;;;25.90;;
68315;SDS011;55508;54.368;18.406;2022-08-19T02:28:49;29.67;;;26.52;;
68315;SDS011;55508;54.368;18.406;2022-08-19T02:31:18;30.88;;;26.90;;
68315;SDS011;55508;54.368;18.406;2022-08-19T02:33:46;30.75;;;25.67;;
68315;SDS011;55508;54.368;18.406;2022-08-19T02:36:14;28.77;;;25.48;;
68315;SDS011;55508;54.368;18.406;2022-08-19T02:38:46;29.30;;;23.83;;
68315;SDS011;55508;54.368;18.406;2022-08-19T02:41:26;34.65;;;27.52;;
68315;SDS011;55508;54.368;18.406;2022-08-19T02:43:55;28.65;;;24.25;;
68315;SDS011;55508;54.368;18.406;2022-08-19T02:46:45;28.90;;;24.83;;
68315;SDS011;55508;54.368;18.406;2022-08-19T02:49:13;29.50;;;24.98;;
68315;SDS011;55508;54.368;18.406;2022-08-19T02:51:43;27.13;;;24.23;;
68315;SDS011;55508;54.368;18.406;2022-08-19T02:54:12;27.35;;;24.67;;
68315;SDS011;55508;54.368;18.406;2022-08-19T02:56:40;29.40;;;26.40;;
68315;SDS011;55508;54.368;18.406;2022-08-19T02:59:08;31.55;;;24.92;;
68315;SDS011;55508;54.368;18.406;2022-08-19T03:01:37;35.22;;;25.25;;
68315;SDS011;55508;54.368;18.406;2022-08-19T03:04:10;31.08;;;26.40;;
68315;SDS011;55508;54.368;18.406;2022-08-19T03:06:43;30.67;;;27.17;;
68315;SDS011;55508;54.368;18.406;2022-08-19T03:09:11;29.98;;;25.77;;
68315;SDS011;55508;54.368;18.406;2022-08-19T03:11:39;29.75;;;26.50;;
68315;SDS011;55508;54.368;18.406;2022-08-19T03:14:07;29.27;;;23.90;;
68315;SDS011;55508;54.368;18.406;2022-08-19T03:16:39;29.77;;;24.65;;
68315;SDS011;55508;54.368;18.406;2022-08-19T03:19:11;25.35;;;22.88;;
68315;SDS011;55508;54.368;18.406;2022-08-19T03:21:38;30.50;;;27.35;;
68315;SDS011;55508;54.368;18.406;2022-08-19T03:24:06;30.15;;;27.13;;
68315;SDS011;55508;54.368;18.406;2022-08-19T03:26:38;29.20;;;26.33;;
68315;SDS011;55508;54.368;18.406;2022-08-19T03:29:06;30.08;;;26.90;;
68315;SDS011;55508;54.368;18.406;2022-08-19T03:31:35;33.83;;;28.48;;
68315;SDS011;55508;54.368;18.406;2022-08-19T03:34:18;34.88;;;27.27;;
68315;SDS011;55508;54.368;18.406;2022-08-19T03:36:47;28.77;;;25.73;;
68315;SDS011;55508;54.368;18.406;2022-08-19T03:39:14;30.95;;;26.63;;
68315;SDS011;55508;54.368;18.406;2022-08-19T03:41:43;28.02;;;25.13;;
68315;SDS011;55508;54.368;18.406;2022-08-19T03:44:15;28.25;;;25.55;;
68315;SDS011;55508;54.368;18.406;2022-08-19T03:46:45;26.17;;;23.57;;
68315;SDS011;55508;54.368;18.406;2022-08-19T03:49:13;33.88;;;26.30;;
68315;SDS011;55508;54.368;18.406;2022-08-19T03:51:43;26.77;;;24.13;;
68315;SDS011;55508;54.368;18.406;2022-08-19T03:54:12;24.80;;;22.33;;
68315;SDS011;55508;54.368;18.406;2022-08-19T03:56:41;27.42;;;21.50;;
68315;SDS011;55508;54.368;18.406;2022-08-19T03:59:11;25.10;;;22.75;;
68315;SDS011;55508;54.368;18.406;2022-08-19T04:01:43;28.45;;;22.02;;
68315;SDS011;55508;54.368;18.406;2022-08-19T04:04:10;23.65;;;21.33;;
68315;SDS011;55508;54.368;18.406;2022-08-19T04:06:38;22.77;;;20.45;;
68315;SDS011;55508;54.368;18.406;2022-08-19T04:09:09;22.00;;;19.90;;
68315;SDS011;55508;54.368;18.406;2022-08-19T04:11:41;20.92;;;18.67;;
68315;SDS011;55508;54.368;18.406;2022-08-19T04:14:14;20.02;;;17.80;;
68315;SDS011;55508;54.368;18.406;2022-08-19T04:16:43;18.67;;;16.92;;
68315;SDS011;55508;54.368;18.406;2022-08-19T04:19:11;19.05;;;17.17;;
68315;SDS011;55508;54.368;18.406;2022-08-19T04:21:39;18.98;;;16.92;;
68315;SDS011;55508;54.368;18.406;2022-08-19T04:24:11;19.42;;;17.67;;
68315;SDS011;55508;54.368;18.406;2022-08-19T04:26:39;17.80;;;16.20;;
68315;SDS011;55508;54.368;18.406;2022-08-19T04:29:07;17.80;;;16.10;;
68315;SDS011;55508;54.368;18.406;2022-08-19T04:31:39;16.63;;;15.38;;
68315;SDS011;55508;54.368;18.406;2022-08-19T04:34:08;17.50;;;15.75;;
68315;SDS011;55508;54.368;18.406;2022-08-19T04:36:39;16.35;;;14.82;;
68315;SDS011;55508;54.368;18.406;2022-08-19T04:39:17;16.52;;;15.02;;
68315;SDS011;55508;54.368;18.406;2022-08-19T04:41:46;14.13;;;12.70;;
68315;SDS011;55508;54.368;18.406;2022-08-19T04:44:33;15.70;;;13.30;;
68315;SDS011;55508;54.368;18.406;2022-08-19T04:47:05;17.83;;;15.30;;
68315;SDS011;55508;54.368;18.406;2022-08-19T04:52:03;16.33;;;14.60;;
68315;SDS011;55508;54.368;18.406;2022-08-19T04:54:30;17.20;;;14.00;;
68315;SDS011;55508;54.368;18.406;2022-08-19T04:57:05;16.23;;;14.68;;
68315;SDS011;55508;54.368;18.406;2022-08-19T04:59:37;16.05;;;14.57;;
68315;SDS011;55508;54.368;18.406;2022-08-19T05:02:04;19.92;;;15.10;;
68315;SDS011;55508;54.368;18.406;2022-08-19T05:04:34;16.05;;;14.60;;
68315;SDS011;55508;54.368;18.406;2022-08-19T05:07:01;19.45;;;15.52;;
68315;SDS011;55508;54.368;18.406;2022-08-19T05:09:29;17.70;;;15.65;;
68315;SDS011;55508;54.368;18.406;2022-08-19T05:12:17;20.73;;;15.90;;
68315;SDS011;55508;54.368;18.406;2022-08-19T05:14:45;17.83;;;16.02;;
68315;SDS011;55508;54.368;18.406;2022-08-19T05:17:14;19.77;;;15.63;;
68315;SDS011;55508;54.368;18.406;2022-08-19T05:20:02;16.23;;;14.50;;
68315;SDS011;55508;54.368;18.406;2022-08-19T05:22:49;23.48;;;16.13;;
68315;SDS011;55508;54.368;18.406;2022-08-19T05:25:17;19.15;;;15.52;;
68315;SDS011;55508;54.368;18.406;2022-08-19T05:27:46;23.85;;;17.08;;
68315;SDS011;55508;54.368;18.406;2022-08-19T05:30:14;22.48;;;17.85;;
68315;SDS011;55508;54.368;18.406;2022-08-19T05:32:42;20.88;;;18.50;;
68315;SDS011;55508;54.368;18.406;2022-08-19T05:35:09;30.13;;;18.15;;
68315;SDS011;55508;54.368;18.406;2022-08-19T05:37:37;23.52;;;17.60;;
68315;SDS011;55508;54.368;18.406;2022-08-19T05:40:07;22.52;;;16.90;;
68315;SDS011;55508;54.368;18.406;2022-08-19T05:42:36;21.20;;;15.85;;
68315;SDS011;55508;54.368;18.406;2022-08-19T05:45:04;22.13;;;15.65;;
68315;SDS011;55508;54.368;18.406;2022-08-19T05:47:31;24.83;;;16.38;;
68315;SDS011;55508;54.368;18.406;2022-08-19T05:49:58;20.20;;;15.27;;
68315;SDS011;55508;54.368;18.406;2022-08-19T05:52:30;21.75;;;15.20;;
68315;SDS011;55508;54.368;18.406;2022-08-19T05:54:58;24.77;;;15.73;;
68315;SDS011;55508;54.368;18.406;2022-08-19T05:57:26;20.45;;;15.68;;
68315;SDS011;55508;54.368;18.406;2022-08-19T05:59:55;20.35;;;15.07;;
68315;SDS011;55508;54.368;18.406;2022-08-19T06:02:28;18.65;;;14.50;;
68315;SDS011;55508;54.368;18.406;2022-08-19T06:04:57;22.67;;;14.23;;
68315;SDS011;55508;54.368;18.406;2022-08-19T06:07:25;20.25;;;15.05;;
68315;SDS011;55508;54.368;18.406;2022-08-19T06:09:52;20.17;;;14.48;;
68315;SDS011;55508;54.368;18.406;2022-08-19T06:12:29;22.10;;;12.98;;
68315;SDS011;55508;54.368;18.406;2022-08-19T06:15:05;23.40;;;11.98;;
68315;SDS011;55508;54.368;18.406;2022-08-19T06:17:35;24.83;;;11.75;;
68315;SDS011;55508;54.368;18.406;2022-08-19T06:20:03;25.83;;;12.05;;
68315;SDS011;55508;54.368;18.406;2022-08-19T06:22:31;20.65;;;10.32;;
68315;SDS011;55508;54.368;18.406;2022-08-19T06:25:04;23.77;;;10.25;;
68315;SDS011;55508;54.368;18.406;2022-08-19T06:27:32;17.42;;;10.57;;
68315;SDS011;55508;54.368;18.406;2022-08-19T06:30:00;18.10;;;10.50;;
68315;SDS011;55508;54.368;18.406;2022-08-19T06:32:27;16.92;;;9.95;;
68315;SDS011;55508;54.368;18.406;2022-08-19T06:34:55;11.20;;;9.45;;
68315;SDS011;55508;54.368;18.406;2022-08-19T06:37:22;11.20;;;9.75;;
68315;SDS011;55508;54.368;18.406;2022-08-19T06:39:49;21.73;;;9.45;;
68315;SDS011;55508;54.368;18.406;2022-08-19T06:42:17;14.38;;;9.02;;
68315;SDS011;55508;54.368;18.406;2022-08-19T06:44:50;10.13;;;9.05;;
68315;SDS011;55508;54.368;18.406;2022-08-19T06:47:19;21.25;;;8.63;;
68315;SDS011;55508;54.368;18.406;2022-08-19T06:49:57;9.70;;;8.82;;
68315;SDS011;55508;54.368;18.406;2022-08-19T06:52:31;15.35;;;9.07;;
68315;SDS011;55508;54.368;18.406;2022-08-19T06:55:02;10.00;;;8.75;;
68315;SDS011;55508;54.368;18.406;2022-08-19T06:57:32;8.68;;;8.07;;
68315;SDS011;55508;54.368;18.406;2022-08-19T07:00:00;10.07;;;8.48;;
68315;SDS011;55508;54.368;18.406;2022-08-19T07:02:27;10.80;;;8.55;;
68315;SDS011;55508;54.368;18.406;2022-08-19T07:04:54;14.25;;;8.40;;
68315;SDS011;55508;54.368;18.406;2022-08-19T07:07:24;12.15;;;8.90;;
68315;SDS011;55508;54.368;18.406;2022-08-19T07:09:51;8.63;;;8.02;;
68315;SDS011;55508;54.368;18.406;2022-08-19T07:12:26;9.35;;;8.55;;
68315;SDS011;55508;54.368;18.406;2022-08-19T07:14:55;12.00;;;8.27;;
68315;SDS011;55508;54.368;18.406;2022-08-19T07:17:23;14.63;;;8.52;;
68315;SDS011;55508;54.368;18.406;2022-08-19T07:19:50;10.45;;;8.38;;
68315;SDS011;55508;54.368;18.406;2022-08-19T07:22:20;9.13;;;8.10;;
68315;SDS011;55508;54.368;18.406;2022-08-19T07:24:50;9.60;;;8.25;;
68315;SDS011;55508;54.368;18.406;2022-08-19T07:27:18;10.45;;;8.07;;
68315;SDS011;55508;54.368;18.406;2022-08-19T07:29:51;10.50;;;7.57;;
68315;SDS011;55508;54.368;18.406;2022-08-19T07:32:23;9.00;;;8.10;;
68315;SDS011;55508;54.368;18.406;2022-08-19T07:34:53;9.63;;;7.85;;
68315;SDS011;55508;54.368;18.406;2022-08-19T07:37:22;10.85;;;7.95;;
68315;SDS011;55508;54.368;18.406;2022-08-19T07:39:56;12.88;;;7.75;;
68315;SDS011;55508;54.368;18.406;2022-08-19T07:42:23;21.80;;;8.75;;
68315;SDS011;55508;54.368;18.406;2022-08-19T07:44:50;22.85;;;8.25;;
68315;SDS011;55508;54.368;18.406;2022-08-19T07:47:17;8.57;;;6.85;;
68315;SDS011;55508;54.368;18.406;2022-08-19T07:50:06;12.60;;;7.18;;
68315;SDS011;55508;54.368;18.406;2022-08-19T07:52:35;9.07;;;7.68;;
68315;SDS011;55508;54.368;18.406;2022-08-19T07:55:06;14.50;;;7.70;;
68315;SDS011;55508;54.368;18.406;2022-08-19T07:57:54;10.68;;;7.43;;
68315;SDS011;55508;54.368;18.406;2022-08-19T08:00:21;11.38;;;7.18;;
68315;SDS011;55508;54.368;18.406;2022-08-19T08:02:50;11.25;;;7.85;;
68315;SDS011;55508;54.368;18.406;2022-08-19T08:05:22;16.65;;;8.20;;
68315;SDS011;55508;54.368;18.406;2022-08-19T08:08:10;15.80;;;7.80;;
68315;SDS011;55508;54.368;18.406;2022-08-19T08:10:58;8.80;;;7.18;;
68315;SDS011;55508;54.368;18.406;2022-08-19T08:13:25;15.30;;;7.38;;
68315;SDS011;55508;54.368;18.406;2022-08-19T08:15:54;9.73;;;7.68;;
68315;SDS011;55508;54.368;18.406;2022-08-19T08:18:22;11.32;;;7.88;;
68315;SDS011;55508;54.368;18.406;2022-08-19T08:20:56;45.65;;;9.52;;
68315;SDS011;55508;54.368;18.406;2022-08-19T08:23:24;19.80;;;7.82;;
68315;SDS011;55508;54.368;18.406;2022-08-19T08:25:53;10.07;;;7.45;;
68315;SDS011;55508;54.368;18.406;2022-08-19T08:28:24;8.48;;;7.20;;
68315;SDS011;55508;54.368;18.406;2022-08-19T08:30:55;11.57;;;7.70;;
68315;SDS011;55508;54.368;18.406;2022-08-19T08:33:25;9.35;;;6.95;;
68315;SDS011;55508;54.368;18.406;2022-08-19T08:36:06;9.43;;;7.40;;
68315;SDS011;55508;54.368;18.406;2022-08-19T08:38:35;11.07;;;7.50;;
68315;SDS011;55508;54.368;18.406;2022-08-19T08:43:56;8.82;;;7.18;;
68315;SDS011;55508;54.368;18.406;2022-08-19T08:52:16;13.27;;;6.72;;
68315;SDS011;55508;54.368;18.406;2022-08-19T08:54:46;12.13;;;6.95;;
68315;SDS011;55508;54.368;18.406;2022-08-19T08:57:28;12.02;;;7.07;;
68315;SDS011;55508;54.368;18.406;2022-08-19T09:00:10;13.60;;;6.97;;
68315;SDS011;55508;54.368;18.406;2022-08-19T09:02:41;7.57;;;6.75;;
68315;SDS011;55508;54.368;18.406;2022-08-19T09:05:09;9.35;;;6.68;;
68315;SDS011;55508;54.368;18.406;2022-08-19T09:07:45;7.63;;;6.45;;
68315;SDS011;55508;54.368;18.406;2022-08-19T09:10:27;13.40;;;6.68;;
68315;SDS011;55508;54.368;18.406;2022-08-19T09:13:06;10.95;;;5.95;;
68315;SDS011;55508;54.368;18.406;2022-08-19T09:15:36;7.40;;;6.60;;
68315;SDS011;55508;54.368;18.406;2022-08-19T09:18:07;7.65;;;6.82;;
68315;SDS011;55508;54.368;18.406;2022-08-19T09:20:44;9.95;;;6.38;;
68315;SDS011;55508;54.368;18.406;2022-08-19T09:23:14;10.35;;;6.32;;
68315;SDS011;55508;54.368;18.406;2022-08-19T09:25:41;13.40;;;6.22;;
68315;SDS011;55508;54.368;18.406;2022-08-19T09:28:08;8.95;;;5.90;;
68315;SDS011;55508;54.368;18.406;2022-08-19T09:30:48;11.07;;;5.93;;
68315;SDS011;55508;54.368;18.406;2022-08-19T09:33:18;13.18;;;6.03;;
68315;SDS011;55508;54.368;18.406;2022-08-19T09:35:46;8.18;;;5.68;;
68315;SDS011;55508;54.368;18.406;2022-08-19T09:38:20;14.27;;;5.03;;
68315;SDS011;55508;54.368;18.406;2022-08-19T09:40:48;6.38;;;5.13;;
68315;SDS011;55508;54.368;18.406;2022-08-19T09:43:16;8.77;;;5.45;;
68315;SDS011;55508;54.368;18.406;2022-08-19T09:46:04;18.77;;;5.10;;
68315;SDS011;55508;54.368;18.406;2022-08-19T09:48:33;11.30;;;5.15;;
68315;SDS011;55508;54.368;18.406;2022-08-19T09:51:13;11.80;;;5.10;;
68315;SDS011;55508;54.368;18.406;2022-08-19T09:53:43;7.47;;;4.82;;
68315;SDS011;55508;54.368;18.406;2022-08-19T09:56:11;10.18;;;4.78;;
68315;SDS011;55508;54.368;18.406;2022-08-19T09:58:39;7.88;;;5.00;;
68315;SDS011;55508;54.368;18.406;2022-08-19T10:01:07;8.25;;;5.30;;
68315;SDS011;55508;54.368;18.406;2022-08-19T10:03:35;6.88;;;5.25;;
68315;SDS011;55508;54.368;18.406;2022-08-19T10:06:04;10.45;;;5.15;;
68315;SDS011;55508;54.368;18.406;2022-08-19T10:08:42;14.65;;;5.93;;
68315;SDS011;55508;54.368;18.406;2022-08-19T10:11:16;5.65;;;4.53;;
68315;SDS011;55508;54.368;18.406;2022-08-19T10:14:00;6.68;;;4.90;;
68315;SDS011;55508;54.368;18.406;2022-08-19T10:16:28;5.93;;;4.47;;
68315;SDS011;55508;54.368;18.406;2022-08-19T10:18:56;41.42;;;5.75;;
68315;SDS011;55508;54.368;18.406;2022-08-19T10:21:25;51.90;;;6.85;;
68315;SDS011;55508;54.368;18.406;2022-08-19T10:23:59;10.00;;;4.80;;
68315;SDS011;55508;54.368;18.406;2022-08-19T10:26:32;7.70;;;4.93;;
68315;SDS011;55508;54.368;18.406;2022-08-19T10:29:03;5.20;;;4.70;;
68315;SDS011;55508;54.368;18.406;2022-08-19T10:31:34;5.18;;;4.72;;
68315;SDS011;55508;54.368;18.406;2022-08-19T10:34:21;10.07;;;4.50;;
68315;SDS011;55508;54.368;18.406;2022-08-19T10:36:54;11.77;;;5.03;;
68315;SDS011;55508;54.368;18.406;2022-08-19T10:39:30;6.53;;;4.93;;
68315;SDS011;55508;54.368;18.406;2022-08-19T10:42:08;5.95;;;4.47;;
68315;SDS011;55508;54.368;18.406;2022-08-19T10:47:07;9.00;;;4.93;;
68315;SDS011;55508;54.368;18.406;2022-08-19T10:49:50;4.88;;;4.45;;
68315;SDS011;55508;54.368;18.406;2022-08-19T10:52:38;6.68;;;4.55;;
68315;SDS011;55508;54.368;18.406;2022-08-19T10:55:20;8.23;;;4.75;;
68315;SDS011;55508;54.368;18.406;2022-08-19T10:58:13;6.40;;;4.80;;
68315;SDS011;55508;54.368;18.406;2022-08-19T11:00:42;6.88;;;4.95;;
68315;SDS011;55508;54.368;18.406;2022-08-19T11:03:10;7.60;;;4.90;;
68315;SDS011;55508;54.368;18.406;2022-08-19T11:05:37;6.97;;;4.72;;
68315;SDS011;55508;54.368;18.406;2022-08-19T11:08:06;8.40;;;5.30;;
68315;SDS011;55508;54.368;18.406;2022-08-19T11:10:50;8.50;;;4.88;;
68315;SDS011;55508;54.368;18.406;2022-08-19T11:13:20;8.38;;;5.03;;
68315;SDS011;55508;54.368;18.406;2022-08-19T11:15:55;5.53;;;4.57;;
68315;SDS011;55508;54.368;18.406;2022-08-19T11:18:35;12.07;;;5.43;;
68315;SDS011;55508;54.368;18.406;2022-08-19T11:21:08;21.42;;;5.43;;
68315;SDS011;55508;54.368;18.406;2022-08-19T11:23:40;12.35;;;5.43;;
68315;SDS011;55508;54.368;18.406;2022-08-19T11:26:07;7.32;;;5.03;;
68315;SDS011;55508;54.368;18.406;2022-08-19T11:28:35;9.88;;;5.05;;
68315;SDS011;55508;54.368;18.406;2022-08-19T11:31:02;8.23;;;5.35;;
68315;SDS011;55508;54.368;18.406;2022-08-19T11:33:30;5.05;;;4.40;;
68315;SDS011;55508;54.368;18.406;2022-08-19T11:35:58;10.05;;;4.50;;
68315;SDS011;55508;54.368;18.406;2022-08-19T11:38:26;9.35;;;4.85;;
68315;SDS011;55508;54.368;18.406;2022-08-19T11:41:00;10.25;;;4.50;;
68315;SDS011;55508;54.368;18.406;2022-08-19T11:43:29;6.03;;;5.03;;
68315;SDS011;55508;54.368;18.406;2022-08-19T11:46:09;7.88;;;5.05;;
68315;SDS011;55508;54.368;18.406;2022-08-19T11:48:38;6.25;;;4.97;;
68315;SDS011;55508;54.368;18.406;2022-08-19T11:51:10;12.98;;;5.07;;
68315;SDS011;55508;54.368;18.406;2022-08-19T11:53:39;49.40;;;6.57;;
68315;SDS011;55508;54.368;18.406;2022-08-19T11:56:07;7.05;;;4.72;;
68315;SDS011;55508;54.368;18.406;2022-08-19T11:58:35;12.43;;;5.10;;
68315;SDS011;55508;54.368;18.406;2022-08-19T12:01:06;16.25;;;4.57;;
68315;SDS011;55508;54.368;18.406;2022-08-19T12:03:37;7.00;;;5.20;;
68315;SDS011;55508;54.368;18.406;2022-08-19T12:06:06;10.10;;;5.05;;
68315;SDS011;55508;54.368;18.406;2022-08-19T12:08:35;9.65;;;4.63;;
68315;SDS011;55508;54.368;18.406;2022-08-19T12:11:02;15.77;;;5.55;;
68315;SDS011;55508;54.368;18.406;2022-08-19T12:13:30;14.82;;;5.53;;
68315;SDS011;55508;54.368;18.406;2022-08-19T12:15:57;60.63;;;7.22;;
68315;SDS011;55508;54.368;18.406;2022-08-19T12:18:24;21.58;;;6.10;;
68315;SDS011;55508;54.368;18.406;2022-08-19T12:20:52;32.97;;;5.95;;
68315;SDS011;55508;54.368;18.406;2022-08-19T12:23:21;11.65;;;5.35;;
68315;SDS011;55508;54.368;18.406;2022-08-19T12:25:48;7.63;;;5.15;;
68315;SDS011;55508;54.368;18.406;2022-08-19T12:28:19;14.85;;;5.00;;
68315;SDS011;55508;54.368;18.406;2022-08-19T12:30:47;7.22;;;5.35;;
68315;SDS011;55508;54.368;18.406;2022-08-19T12:33:17;7.43;;;5.22;;
68315;SDS011;55508;54.368;18.406;2022-08-19T12:35:45;10.68;;;5.00;;
68315;SDS011;55508;54.368;18.406;2022-08-19T12:38:13;9.48;;;4.72;;
68315;SDS011;55508;54.368;18.406;2022-08-19T12:40:41;10.63;;;4.95;;
68315;SDS011;55508;54.368;18.406;2022-08-19T12:43:11;10.07;;;4.63;;
68315;SDS011;55508;54.368;18.406;2022-08-19T12:45:40;5.38;;;4.88;;
68315;SDS011;55508;54.368;18.406;2022-08-19T12:48:09;7.30;;;5.13;;
68315;SDS011;55508;54.368;18.406;2022-08-19T12:50:56;9.23;;;4.90;;
68315;SDS011;55508;54.368;18.406;2022-08-19T12:53:23;9.27;;;5.25;;
68315;SDS011;55508;54.368;18.406;2022-08-19T12:55:55;14.27;;;4.72;;
68315;SDS011;55508;54.368;18.406;2022-08-19T12:58:23;4.88;;;4.47;;
68315;SDS011;55508;54.368;18.406;2022-08-19T13:00:53;17.40;;;5.32;;
68315;SDS011;55508;54.368;18.406;2022-08-19T13:03:20;8.18;;;5.28;;
68315;SDS011;55508;54.368;18.406;2022-08-19T13:05:50;11.55;;;5.03;;
68315;SDS011;55508;54.368;18.406;2022-08-19T13:08:17;7.50;;;5.25;;
68315;SDS011;55508;54.368;18.406;2022-08-19T13:10:45;10.55;;;5.05;;
68315;SDS011;55508;54.368;18.406;2022-08-19T13:13:12;7.82;;;5.22;;
68315;SDS011;55508;54.368;18.406;2022-08-19T13:15:40;10.93;;;5.60;;
68315;SDS011;55508;54.368;18.406;2022-08-19T13:18:09;8.55;;;4.97;;
68315;SDS011;55508;54.368;18.406;2022-08-19T13:20:37;5.20;;;4.70;;
68315;SDS011;55508;54.368;18.406;2022-08-19T13:23:07;35.70;;;6.57;;
68315;SDS011;55508;54.368;18.406;2022-08-19T13:25:35;8.00;;;4.95;;
68315;SDS011;55508;54.368;18.406;2022-08-19T13:28:03;7.63;;;4.93;;
68315;SDS011;55508;54.368;18.406;2022-08-19T13:30:32;10.82;;;4.90;;
68315;SDS011;55508;54.368;18.406;2022-08-19T13:33:18;15.68;;;6.20;;
68315;SDS011;55508;54.368;18.406;2022-08-19T13:35:56;10.80;;;4.88;;
68315;SDS011;55508;54.368;18.406;2022-08-19T13:38:25;12.48;;;5.95;;
68315;SDS011;55508;54.368;18.406;2022-08-19T13:40:53;6.63;;;5.15;;
68315;SDS011;55508;54.368;18.406;2022-08-19T13:43:22;7.60;;;4.90;;
68315;SDS011;55508;54.368;18.406;2022-08-19T13:45:52;14.13;;;5.25;;
68315;SDS011;55508;54.368;18.406;2022-08-19T13:48:23;13.25;;;4.97;;
68315;SDS011;55508;54.368;18.406;2022-08-19T13:50:53;204.48;;;15.90;;
68315;SDS011;55508;54.368;18.406;2022-08-19T13:53:20;9.85;;;5.00;;
68315;SDS011;55508;54.368;18.406;2022-08-19T13:55:48;7.57;;;5.38;;
68315;SDS011;55508;54.368;18.406;2022-08-19T13:58:16;5.72;;;5.10;;
68315;SDS011;55508;54.368;18.406;2022-08-19T14:00:44;13.60;;;5.03;;
68315;SDS011;55508;54.368;18.406;2022-08-19T14:03:12;13.00;;;5.50;;
68315;SDS011;55508;54.368;18.406;2022-08-19T14:05:39;13.55;;;5.63;;
68315;SDS011;55508;54.368;18.406;2022-08-19T14:08:06;7.38;;;4.65;;
68315;SDS011;55508;54.368;18.406;2022-08-19T14:10:33;7.45;;;5.32;;
68315;SDS011;55508;54.368;18.406;2022-08-19T14:13:01;9.38;;;5.55;;
68315;SDS011;55508;54.368;18.406;2022-08-19T14:15:29;9.48;;;4.70;;
68315;SDS011;55508;54.368;18.406;2022-08-19T14:17:57;13.48;;;5.82;;
68315;SDS011;55508;54.368;18.406;2022-08-19T14:20:24;10.63;;;5.60;;
68315;SDS011;55508;54.368;18.406;2022-08-19T14:22:52;8.20;;;5.07;;
68315;SDS011;55508;54.368;18.406;2022-08-19T14:25:26;9.52;;;5.38;;
68315;SDS011;55508;54.368;18.406;2022-08-19T14:27:55;8.90;;;5.60;;
68315;SDS011;55508;54.368;18.406;2022-08-19T14:30:24;11.45;;;5.93;;
68315;SDS011;55508;54.368;18.406;2022-08-19T14:32:56;9.93;;;6.10;;
68315;SDS011;55508;54.368;18.406;2022-08-19T14:35:25;14.48;;;5.72;;
68315;SDS011;55508;54.368;18.406;2022-08-19T14:37:53;6.50;;;5.88;;
68315;SDS011;55508;54.368;18.406;2022-08-19T14:40:23;9.63;;;5.60;;
68315;SDS011;55508;54.368;18.406;2022-08-19T14:42:53;9.88;;;5.43;;
68315;SDS011;55508;54.368;18.406;2022-08-19T14:45:26;8.98;;;5.50;;
68315;SDS011;55508;54.368;18.406;2022-08-19T14:47:54;6.85;;;5.50;;
68315;SDS011;55508;54.368;18.406;2022-08-19T14:50:21;6.22;;;4.95;;
68315;SDS011;55508;54.368;18.406;2022-08-19T14:52:49;12.57;;;5.63;;
68315;SDS011;55508;54.368;18.406;2022-08-19T14:55:16;5.88;;;5.10;;
68315;SDS011;55508;54.368;18.406;2022-08-19T14:57:44;11.32;;;5.90;;